Time;durP1;ratioP1;P1;durP2;ratioP2;P2;SDS_P1;SDS_P2;PMS_P1;PMS_P2;Temp;Humidity;BMP_temperature;BMP_pressure;BME280_temperature;BME280_humidity;BME280_pressure;Samples;Min_cycle;Max_cycle;Signal;HPM_P1;HPM_P2
2023/07/18 00:00:23;;;;;;;6.93;2.35;;;;;;;22.67;44.84;101919.53;5055662;28;20112;-61
2023/07/18 00:02:49;;;;;;;3.45;2.20;;;;;;;22.62;44.83;101920.88;5056867;28;20044;-60
2023/07/18 00:05:14;;;;;;;4.95;1.90;;;;;;;22.56;45.18;101910.66;5055496;28;20055;-61
2023/07/18 00:07:40;;;;;;;7.30;2.38;;;;;;;22.52;44.18;101912.06;5056507;28;20029;-61
2023/07/18 00:10:10;;;;;;;5.50;3.58;;;;;;;22.47;45.03;101905.44;5056751;28;20516;-61
2023/07/18 00:12:36;;;;;;;3.35;2.47;;;;;;;22.45;44.56;101912.94;5055219;28;20041;-61
2023/07/18 00:15:03;;;;;;;6.82;2.45;;;;;;;22.40;45.33;101910.78;5055326;28;20445;-61
2023/07/18 00:17:31;;;;;;;4.93;2.20;;;;;;;22.37;44.99;101907.53;5038715;28;20043;-60
2023/07/18 00:19:58;;;;;;;5.55;2.53;;;;;;;22.34;44.40;101906.03;5056598;28;20079;-61
2023/07/18 00:22:23;;;;;;;4.53;2.10;;;;;;;22.32;45.28;101908.09;5055625;28;20120;-61
2023/07/18 00:24:49;;;;;;;5.32;2.40;;;;;;;22.30;44.53;101910.16;5055306;28;20060;-61
2023/07/18 00:27:16;;;;;;;5.68;2.17;;;;;;;22.26;44.99;101897.88;5055040;28;20040;-61
2023/07/18 00:29:42;;;;;;;3.85;2.95;;;;;;;22.22;44.80;101901.16;5049260;28;20078;-61
2023/07/18 00:32:07;;;;;;;3.83;1.92;;;;;;;22.21;44.44;101903.03;5063663;28;20119;-61
2023/07/18 00:34:33;;;;;;;3.83;1.80;;;;;;;22.16;45.10;101910.91;5054993;28;20056;-61
2023/07/18 00:36:58;;;;;;;6.15;2.78;;;;;;;22.10;45.16;101906.16;5054859;28;20068;-60
2023/07/18 00:39:23;;;;;;;1.98;1.73;;;;;;;22.09;44.51;101901.72;5056506;28;20032;-60
2023/07/18 00:41:49;;;;;;;2.50;1.52;;;;;;;22.07;44.71;101914.69;5055169;28;20029;-60
2023/07/18 00:44:14;;;;;;;2.92;2.10;;;;;;;22.04;45.15;101909.59;5055094;28;20492;-61
2023/07/18 00:46:40;;;;;;;4.38;1.75;;;;;;;22.00;45.37;101909.09;5055167;28;20144;-61
2023/07/18 00:49:06;;;;;;;4.22;1.90;;;;;;;21.94;44.54;101900.78;5055486;28;20044;-60
2023/07/18 00:51:31;;;;;;;4.60;1.90;;;;;;;21.92;45.07;101906.41;5056836;28;20041;-60
2023/07/18 00:53:57;;;;;;;2.38;1.95;;;;;;;21.88;45.05;101904.22;5054963;28;20106;-61
2023/07/18 00:56:23;;;;;;;7.15;2.08;;;;;;;21.85;44.52;101901.81;5054469;28;20236;-61
2023/07/18 00:58:48;;;;;;;6.10;2.17;;;;;;;21.81;45.61;101904.03;5037983;28;20386;-60
2023/07/18 01:01:17;;;;;;;4.80;2.92;;;;;;;21.79;44.59;101891.59;5056401;28;20480;-62
2023/07/18 01:03:42;;;;;;;4.97;1.98;;;;;;;21.75;45.02;101890.22;5054726;28;20508;-61
2023/07/18 01:06:08;;;;;;;3.90;2.08;;;;;;;21.74;44.63;101892.13;5054278;28;20029;-60
2023/07/18 01:08:34;;;;;;;3.20;1.65;;;;;;;21.71;45.42;101897.06;5055170;28;20068;-61
2023/07/18 01:11:00;;;;;;;3.30;1.80;;;;;;;21.67;45.17;101896.56;5055046;28;20510;-60
2023/07/18 01:13:25;;;;;;;3.63;2.08;;;;;;;21.62;44.90;101885.34;5056236;28;20141;-62
2023/07/18 01:15:51;;;;;;;4.57;2.50;;;;;;;21.61;45.57;101888.25;5054797;28;20120;-62
2023/07/18 01:18:17;;;;;;;9.80;2.15;;;;;;;21.60;45.62;101883.81;5055336;28;20040;-61
2023/07/18 01:20:45;;;;;;;3.50;2.10;;;;;;;21.57;45.60;101889.63;5053893;28;20052;-60
2023/07/18 01:23:11;;;;;;;5.53;2.03;;;;;;;21.57;45.45;101884.16;5054165;28;20029;-62
2023/07/18 01:25:37;;;;;;;5.65;1.90;;;;;;;21.57;45.36;101884.16;5037231;28;20492;-60
2023/07/18 01:28:03;;;;;;;5.00;1.88;;;;;;;21.56;45.05;101890.63;5053710;28;20404;-60
2023/07/18 01:30:29;;;;;;;2.88;1.90;;;;;;;21.53;45.16;101894.56;5053827;28;20026;-60
2023/07/18 01:32:55;;;;;;;4.40;2.15;;;;;;;21.51;45.91;101885.72;5053856;28;20044;-61
2023/07/18 01:35:26;;;;;;;2.22;1.50;;;;;;;21.49;45.75;101887.78;5054787;28;20037;-60
2023/07/18 01:37:52;;;;;;;7.63;1.90;;;;;;;21.45;44.72;101881.81;5053632;28;20040;-60
2023/07/18 01:40:21;;;;;;;5.35;2.15;;;;;;;21.43;45.68;101883.88;5053616;28;20052;-61
2023/07/18 01:42:52;;;;;;;2.15;1.33;;;;;;;21.40;45.53;101878.75;5037467;28;20040;-60
2023/07/18 01:45:21;;;;;;;3.85;1.80;;;;;;;21.39;45.75;101877.03;5053455;28;20389;-60
2023/07/18 01:47:48;;;;;;;4.30;2.00;;;;;;;21.39;45.56;101879.78;5036887;28;20451;-60
2023/07/18 01:50:14;;;;;;;4.25;1.83;;;;;;;21.34;45.36;101876.72;5053445;28;20059;-60
2023/07/18 01:52:39;;;;;;;5.00;1.23;;;;;;;21.36;44.70;101880.13;5053587;28;20489;-60
2023/07/18 01:55:05;;;;;;;2.13;1.42;;;;;;;21.32;44.67;101873.31;5036450;28;20420;-60
2023/07/18 01:57:35;;;;;;;2.00;1.38;;;;;;;21.28;45.41;101871.97;5053421;28;20029;-60
2023/07/18 02:00:00;;;;;;;3.67;1.40;;;;;;;21.24;44.64;101873.34;5053010;28;20485;-60
2023/07/18 02:02:29;;;;;;;4.60;1.40;;;;;;;21.18;45.04;101865.00;5053030;28;20123;-61
2023/07/18 02:04:56;;;;;;;4.47;1.40;;;;;;;21.16;45.19;101865.16;5052992;28;20120;-60
2023/07/18 02:07:21;;;;;;;4.07;1.60;;;;;;;21.13;44.80;101870.97;5052983;28;20037;-61
2023/07/18 02:09:48;;;;;;;2.67;1.40;;;;;;;21.10;45.11;101865.88;5054423;28;20074;-62
2023/07/18 02:12:15;;;;;;;3.53;1.73;;;;;;;21.05;44.74;101868.19;5054282;28;20037;-60
2023/07/18 02:14:40;;;;;;;2.72;1.90;;;;;;;21.02;45.12;101882.16;5054167;28;20055;-61
2023/07/18 02:17:08;;;;;;;3.97;1.48;;;;;;;21.00;45.19;101870.59;5052964;28;20033;-59
2023/07/18 02:19:33;;;;;;;4.10;1.70;;;;;;;20.95;45.18;101855.78;5052822;28;20037;-60
2023/07/18 02:21:59;;;;;;;6.03;2.00;;;;;;;20.92;45.37;101856.97;5052700;28;20039;-60
2023/07/18 02:24:24;;;;;;;3.65;1.40;;;;;;;20.88;45.35;101861.09;5053130;28;20025;-60
2023/07/18 02:26:49;;;;;;;4.32;1.55;;;;;;;20.85;45.62;101856.81;5052898;28;20112;-61
2023/07/18 02:29:15;;;;;;;3.22;1.77;;;;;;;20.80;44.95;101858.34;5053006;28;20447;-60
2023/07/18 02:31:42;;;;;;;3.80;1.67;;;;;;;20.80;45.29;101863.78;5052769;28;20518;-60
2023/07/18 02:34:07;;;;;;;6.65;1.83;;;;;;;20.80;45.36;101858.34;5052397;28;20060;-60
2023/07/18 02:36:33;;;;;;;4.47;1.50;;;;;;;20.79;45.49;101856.66;5036037;28;20504;-60
2023/07/18 02:38:59;;;;;;;5.72;1.40;;;;;;;20.78;45.41;101854.94;5053929;28;20029;-60
2023/07/18 02:41:24;;;;;;;3.40;1.10;;;;;;;20.76;45.00;101857.00;5053178;28;20036;-60
2023/07/18 02:43:50;;;;;;;3.47;1.65;;;;;;;20.75;44.69;101852.56;5054197;28;20021;-61
2023/07/18 02:46:15;;;;;;;5.63;1.73;;;;;;;20.71;45.40;101860.25;5036614;28;20043;-60
2023/07/18 02:48:41;;;;;;;2.67;1.58;;;;;;;20.67;45.31;101852.56;5053328;28;20546;-60
2023/07/18 02:51:07;;;;;;;3.78;1.52;;;;;;;20.63;45.04;101851.22;5036294;28;20041;-61
2023/07/18 02:53:32;;;;;;;4.65;1.58;;;;;;;20.60;45.26;101851.56;5035888;28;20044;-61
2023/07/18 02:55:58;;;;;;;3.30;1.98;;;;;;;20.54;45.61;101846.78;5053540;28;20025;-60
2023/07/18 02:58:23;;;;;;;1.73;1.20;;;;;;;20.50;45.53;101851.69;5056273;28;20404;-60
2023/07/18 03:00:51;;;;;;;2.90;1.50;;;;;;;20.50;44.98;101861.72;5058228;28;20029;-60
2023/07/18 03:03:16;;;;;;;2.90;1.73;;;;;;;20.49;45.53;101862.78;5055567;28;20162;-60
2023/07/18 03:05:41;;;;;;;3.50;1.35;;;;;;;20.45;45.14;101864.13;5035627;28;20128;-60
2023/07/18 03:08:07;;;;;;;2.25;1.85;;;;;;;20.42;44.92;101864.44;5051786;28;20045;-65
2023/07/18 03:10:32;;;;;;;3.75;1.27;;;;;;;20.38;45.25;101872.09;5052328;28;20104;-61
2023/07/18 03:12:57;;;;;;;4.88;1.33;;;;;;;20.36;45.28;101854.22;5053387;28;20021;-62
2023/07/18 03:15:23;;;;;;;3.42;1.20;;;;;;;20.35;45.17;101868.88;5053576;28;20388;-62
2023/07/18 03:17:49;;;;;;;11.15;1.40;;;;;;;20.29;44.80;101860.38;5053696;28;20021;-62
2023/07/18 03:20:17;;;;;;;4.50;1.33;;;;;;;20.26;45.25;101848.94;5052701;28;20032;-62
2023/07/18 03:22:45;;;;;;;4.45;1.30;;;;;;;20.26;45.38;101849.81;5056132;28;20030;-61
2023/07/18 03:25:11;;;;;;;3.83;1.42;;;;;;;20.22;45.42;101848.41;5038648;28;20017;-63
2023/07/18 03:27:36;;;;;;;14.98;2.00;;;;;;;20.21;45.05;101852.13;5056021;28;20024;-61
2023/07/18 03:30:02;;;;;;;2.17;1.50;;;;;;;20.18;45.27;101855.16;5057314;28;20080;-61
2023/07/18 03:32:28;;;;;;;2.83;1.50;;;;;;;20.14;45.08;101851.09;5056095;28;20114;-61
2023/07/18 03:34:53;;;;;;;2.65;1.20;;;;;;;20.11;45.07;101858.72;5053765;28;20469;-61
2023/07/18 03:37:19;;;;;;;2.78;1.30;;;;;;;20.09;45.23;101852.63;5036157;28;20021;-61
2023/07/18 03:39:45;;;;;;;6.38;1.42;;;;;;;20.10;45.36;101849.72;5035281;28;20021;-62
2023/07/18 03:42:10;;;;;;;1.65;1.55;;;;;;;20.05;45.18;101835.75;5053122;28;20472;-60
2023/07/18 03:44:35;;;;;;;7.82;1.70;;;;;;;20.10;45.44;101847.00;5051663;28;20389;-62
2023/07/18 03:47:01;;;;;;;4.07;1.45;;;;;;;20.11;45.08;101851.44;5053071;28;20048;-60
2023/07/18 03:49:27;;;;;;;4.78;1.73;;;;;;;20.11;45.12;101856.88;5051538;28;20115;-60
2023/07/18 03:51:52;;;;;;;10.15;1.80;;;;;;;20.09;45.25;101848.03;5052597;28;20096;-60
2023/07/18 03:54:18;;;;;;;11.18;1.92;;;;;;;20.06;45.56;101852.94;5051713;28;20025;-60
2023/07/18 03:56:44;;;;;;;4.78;1.48;;;;;;;20.04;45.85;101844.97;5052664;28;20021;-60
2023/07/18 03:59:09;;;;;;;5.32;2.03;;;;;;;20.01;45.53;101839.84;5051759;28;20435;-60
2023/07/18 04:01:34;;;;;;;2.35;1.55;;;;;;;19.97;45.67;101840.31;5034563;28;20106;-60
2023/07/18 04:04:00;;;;;;;3.25;1.60;;;;;;;20.00;45.75;101843.56;5051388;28;20028;-60
2023/07/18 04:06:25;;;;;;;6.13;1.77;;;;;;;19.99;45.87;101847.31;5052434;28;20039;-60
2023/07/18 04:08:51;;;;;;;9.98;2.03;;;;;;;19.99;45.12;101843.75;5052489;28;20025;-60
2023/07/18 04:11:16;;;;;;;2.58;1.73;;;;;;;19.99;45.35;101847.31;5052754;28;20465;-60
2023/07/18 04:13:43;;;;;;;4.07;1.10;;;;;;;19.98;45.21;101840.19;5034439;28;20041;-60
2023/07/18 04:16:08;;;;;;;4.55;1.65;;;;;;;19.98;45.49;101837.47;5034833;28;20033;-61
2023/07/18 04:18:34;;;;;;;1.80;1.30;;;;;;;20.00;45.63;101843.56;5052675;28;20040;-61
2023/07/18 04:21:01;;;;;;;4.05;1.48;;;;;;;20.01;44.88;101839.84;5051668;28;20385;-60
2023/07/18 04:23:26;;;;;;;7.72;2.30;;;;;;;20.01;45.47;101833.56;5052642;28;20411;-59
2023/07/18 04:26:00;;;;;;;9.63;1.55;;;;;;;20.02;45.88;101836.09;5052680;28;20108;-60
2023/07/18 04:28:27;;;;;;;2.30;1.15;;;;;;;20.08;45.91;101831.84;5053256;28;20033;-60
2023/07/18 04:30:52;;;;;;;11.15;2.20;;;;;;;20.11;45.82;101826.94;5034467;28;20116;-60
2023/07/18 04:33:17;;;;;;;5.25;1.45;;;;;;;20.16;45.58;101824.56;5052171;28;20116;-60
2023/07/18 04:35:45;;;;;;;9.80;2.50;;;;;;;20.24;45.56;101827.34;5052248;28;20524;-60
2023/07/18 04:38:11;;;;;;;6.30;1.70;;;;;;;20.32;45.73;101821.91;5034845;28;20042;-60
2023/07/18 04:40:36;;;;;;;8.93;2.03;;;;;;;20.42;45.25;101818.19;5054850;28;20068;-60
2023/07/18 04:43:01;;;;;;;2.72;1.50;;;;;;;20.53;45.88;101812.41;5054572;28;20025;-60
2023/07/18 04:45:27;;;;;;;6.20;1.55;;;;;;;20.62;45.26;101811.38;5056025;28;20057;-59
2023/07/18 04:47:52;;;;;;;4.25;2.20;;;;;;;20.73;45.18;101820.06;5054661;28;20397;-60
2023/07/18 04:50:17;;;;;;;3.42;1.60;;;;;;;20.81;45.40;101800.13;5054839;28;20120;-60
2023/07/18 04:52:43;;;;;;;2.22;1.30;;;;;;;20.97;46.08;101810.16;5055342;28;20036;-60
2023/07/18 04:55:09;;;;;;;6.40;2.35;;;;;;;21.09;45.54;101800.63;5055969;28;20033;-65
2023/07/18 04:57:34;;;;;;;4.80;1.88;;;;;;;21.19;45.45;101796.69;5054542;28;20043;-65
2023/07/18 05:00:00;;;;;;;4.88;1.70;;;;;;;21.36;45.37;101806.50;5055957;28;20199;-65
2023/07/18 05:02:25;;;;;;;4.55;2.17;;;;;;;21.53;44.96;101806.44;5055960;28;20067;-64
2023/07/18 05:04:50;;;;;;;4.72;1.80;;;;;;;21.69;45.14;101800.94;5055536;28;20092;-65
2023/07/18 05:07:16;;;;;;;4.32;1.50;;;;;;;21.86;45.03;101799.84;5055851;28;20427;-69
2023/07/18 05:09:42;;;;;;;5.05;1.80;;;;;;;22.03;45.46;101807.75;5054307;28;20112;-65
2023/07/18 05:12:08;;;;;;;5.97;1.88;;;;;;;22.22;45.47;101809.16;5054135;28;20495;-65
2023/07/18 05:14:34;;;;;;;3.15;1.98;;;;;;;22.39;44.66;101802.56;5055049;28;20037;-65
2023/07/18 05:16:59;;;;;;;3.45;1.98;;;;;;;22.59;44.39;101809.22;5055354;28;20120;-65
2023/07/18 05:19:25;;;;;;;8.38;2.08;;;;;;;22.78;45.04;101804.34;5054071;28;20116;-66
2023/07/18 05:21:50;;;;;;;9.93;2.58;;;;;;;22.94;44.32;101804.19;5055434;28;20033;-67
2023/07/18 05:24:16;;;;;;;7.80;1.75;;;;;;;23.14;43.95;101810.81;5053754;28;20045;-68
2023/07/18 05:26:42;;;;;;;9.73;2.20;;;;;;;23.28;44.50;101800.91;5053318;28;20116;-65
2023/07/18 05:29:07;;;;;;;5.15;1.58;;;;;;;23.42;44.38;101808.31;5053819;28;20404;-65
2023/07/18 05:31:32;;;;;;;7.55;2.05;;;;;;;23.56;43.45;101815.66;5053836;28;20114;-66
2023/07/18 05:33:58;;;;;;;3.80;1.50;;;;;;;23.70;43.46;101807.41;5052888;28;20517;-68
2023/07/18 05:36:23;;;;;;;8.65;2.70;;;;;;;23.87;43.94;101812.69;5055155;28;20045;-66
2023/07/18 05:38:49;;;;;;;4.72;1.33;;;;;;;24.03;43.06;101801.50;5053604;28;20513;-67
2023/07/18 05:41:15;;;;;;;7.25;1.65;;;;;;;24.20;43.52;101809.28;5055050;28;20033;-66
2023/07/18 05:43:40;;;;;;;6.63;1.90;;;;;;;24.37;43.39;101809.91;5053434;28;20510;-67
2023/07/18 05:46:05;;;;;;;4.90;1.98;;;;;;;24.55;42.48;101815.78;5036259;28;20124;-66
2023/07/18 05:48:31;;;;;;;4.43;1.52;;;;;;;24.69;42.57;101809.38;5052609;28;20036;-66
2023/07/18 05:50:56;;;;;;;5.85;1.48;;;;;;;24.90;42.27;101805.78;5052962;28;20029;-67
2023/07/18 05:53:22;;;;;;;3.20;1.80;;;;;;;25.11;42.17;101808.47;5054477;28;20418;-66
2023/07/18 05:55:48;;;;;;;5.88;1.80;;;;;;;25.30;42.17;101813.22;5053336;28;20496;-67
2023/07/18 05:58:13;;;;;;;9.00;1.95;;;;;;;25.51;41.86;101809.59;5053450;28;20031;-66
2023/07/18 06:00:39;;;;;;;3.50;1.75;;;;;;;25.74;41.52;101807.38;5054679;28;20037;-66
2023/07/18 06:03:04;;;;;;;2.72;1.45;;;;;;;25.93;41.37;101809.38;5053314;28;20503;-68
2023/07/18 06:05:30;;;;;;;3.83;1.25;;;;;;;26.12;41.01;101815.13;5054336;28;20120;-61
2023/07/18 06:07:55;;;;;;;9.50;1.58;;;;;;;26.26;40.26;101808.63;5054328;28;20485;-61
2023/07/18 06:10:21;;;;;;;11.13;2.08;;;;;;;26.42;40.28;101808.25;5052975;28;20040;-61
2023/07/18 06:12:46;;;;;;;6.40;1.00;;;;;;;26.56;40.12;101809.94;5052941;28;20037;-63
2023/07/18 06:15:12;;;;;;;2.92;2.00;;;;;;;26.74;40.27;101815.69;5052850;28;20485;-61
2023/07/18 06:17:38;;;;;;;4.07;1.50;;;;;;;26.85;39.66;101804.09;5036346;28;20037;-61
2023/07/18 06:20:09;;;;;;;5.75;1.50;;;;;;;26.98;39.74;101806.81;5052874;28;20382;-61
2023/07/18 06:22:34;;;;;;;8.93;1.00;;;;;;;27.11;39.87;101812.28;5053861;28;20048;-61
2023/07/18 06:24:59;;;;;;;7.35;1.45;;;;;;;27.21;39.00;101803.63;5052650;28;20033;-61
2023/07/18 06:27:26;;;;;;;5.22;1.38;;;;;;;27.32;38.72;101800.19;5053865;28;20029;-61
2023/07/18 06:29:52;;;;;;;2.42;1.38;;;;;;;27.49;38.66;101795.97;5052467;28;20029;-61
2023/07/18 06:32:17;;;;;;;1.85;1.08;;;;;;;27.72;38.33;101812.78;5052484;28;20037;-61
2023/07/18 06:34:42;;;;;;;3.67;1.20;;;;;;;27.91;38.32;101811.03;5051908;28;20507;-62
2023/07/18 06:37:08;;;;;;;5.35;2.33;;;;;;;28.09;38.08;101811.19;5053669;28;20033;-61
2023/07/18 06:39:35;;;;;;;1.63;0.82;;;;;;;28.20;37.73;101807.72;5035251;28;20045;-62
2023/07/18 06:42:01;;;;;;;3.60;1.33;;;;;;;28.37;37.64;101809.94;5035934;28;20444;-61
2023/07/18 06:44:26;;;;;;;5.95;1.23;;;;;;;28.55;37.22;101815.56;5052514;28;20095;-62
2023/07/18 06:46:53;;;;;;;4.90;1.00;;;;;;;28.73;37.14;101804.59;5052242;28;20026;-62
2023/07/18 06:49:20;;;;;;;5.47;1.60;;;;;;;28.89;37.18;101804.06;5052258;28;20518;-62
2023/07/18 06:51:45;;;;;;;3.40;1.45;;;;;;;29.06;36.25;101799.66;5052159;28;20025;-62
2023/07/18 06:54:11;;;;;;;4.43;1.35;;;;;;;29.23;36.17;101803.53;5052012;28;20035;-62
2023/07/18 06:56:39;;;;;;;8.23;1.20;;;;;;;29.36;36.42;101800.66;5052104;28;20511;-62
2023/07/18 06:59:04;;;;;;;2.60;1.25;;;;;;;29.54;35.86;101793.44;5053342;28;20041;-62
2023/07/18 07:01:29;;;;;;;4.50;1.52;;;;;;;29.69;35.91;101789.22;5052447;28;20040;-62
2023/07/18 07:03:56;;;;;;;7.95;1.50;;;;;;;29.84;35.38;101786.94;5035440;28;20063;-62
2023/07/18 07:06:23;;;;;;;2.83;1.40;;;;;;;29.98;35.07;101798.66;5035415;28;20033;-62
2023/07/18 07:08:50;;;;;;;3.13;1.00;;;;;;;30.14;35.06;101786.94;5051907;28;20175;-62
2023/07/18 07:11:15;;;;;;;4.72;1.00;;;;;;;30.32;34.47;101792.38;5053177;28;20037;-62
2023/07/18 07:13:40;;;;;;;7.03;1.20;;;;;;;30.49;34.64;101779.59;5035202;28;20040;-61
2023/07/18 07:16:06;;;;;;;1.95;1.00;;;;;;;30.69;34.48;101787.56;5053292;28;20531;-61
2023/07/18 07:18:32;;;;;;;3.03;1.10;;;;;;;30.85;33.86;101777.75;5051687;28;20033;-61
2023/07/18 07:20:58;;;;;;;4.88;1.30;;;;;;;31.04;33.93;101782.09;5052901;28;20032;-61
2023/07/18 07:23:23;;;;;;;7.72;0.90;;;;;;;31.18;33.53;101769.69;5051698;28;20553;-61
2023/07/18 07:25:49;;;;;;;5.80;1.38;;;;;;;31.31;33.58;101783.28;5051744;28;20135;-62
2023/07/18 07:28:14;;;;;;;5.35;1.50;;;;;;;31.37;33.18;101781.47;5035079;28;20061;-61
2023/07/18 07:30:40;;;;;;;4.35;1.10;;;;;;;31.42;33.28;101779.66;5051488;28;20044;-61
2023/07/18 07:33:05;;;;;;;3.75;1.15;;;;;;;31.52;32.85;101774.34;5052908;28;20040;-61
2023/07/18 07:35:31;;;;;;;3.55;1.40;;;;;;;31.68;33.27;101784.69;5018256;28;20504;-62
2023/07/18 07:37:57;;;;;;;2.25;1.48;;;;;;;31.88;32.31;101783.41;5051471;28;20037;-61
2023/07/18 07:40:22;;;;;;;6.43;1.50;;;;;;;31.99;32.32;101788.06;5051631;28;20082;-62
2023/07/18 07:42:47;;;;;;;6.80;1.40;;;;;;;32.00;32.65;101793.34;5051727;28;20041;-61
2023/07/18 07:45:14;;;;;;;8.18;1.38;;;;;;;32.08;32.89;101784.66;5051489;28;20025;-61
2023/07/18 07:47:39;;;;;;;3.58;1.10;;;;;;;32.27;32.41;101782.53;5034882;28;20047;-61
2023/07/18 07:50:06;;;;;;;8.52;1.50;;;;;;;32.44;32.26;101780.59;5051487;28;20037;-62
2023/07/18 07:52:31;;;;;;;7.03;1.13;;;;;;;32.58;31.68;101779.22;5018684;28;20039;-61
2023/07/18 07:54:57;;;;;;;5.72;1.27;;;;;;;32.70;31.75;101780.00;5034517;28;20041;-61
2023/07/18 07:57:23;;;;;;;3.00;1.73;;;;;;;32.87;31.07;101781.91;5051525;28;20037;-62
2023/07/18 07:59:50;;;;;;;5.97;1.33;;;;;;;32.99;31.37;101766.84;5034703;28;20400;-62
2023/07/18 08:02:16;;;;;;;10.13;1.80;;;;;;;33.03;31.16;101769.97;5051318;28;20037;-61
2023/07/18 08:04:41;;;;;;;3.40;1.08;;;;;;;33.04;31.18;101771.63;5045543;28;20520;-62
2023/07/18 08:07:10;;;;;;;4.10;1.10;;;;;;;33.08;30.22;101767.31;5042145;28;20060;-61
2023/07/18 08:09:36;;;;;;;1.98;0.82;;;;;;;33.07;30.62;101768.38;5048083;28;20441;-61
2023/07/18 08:12:05;;;;;;;3.97;0.90;;;;;;;33.07;31.22;101765.59;5032780;28;20527;-62
2023/07/18 08:14:34;;;;;;;3.45;0.80;;;;;;;33.04;30.66;101766.09;5018446;28;20041;-61
2023/07/18 08:17:01;;;;;;;1.58;0.60;;;;;;;32.94;30.78;101760.38;5035363;28;20041;-62
2023/07/18 08:19:27;;;;;;;4.30;0.70;;;;;;;32.99;30.37;101757.69;5018755;28;20513;-61
2023/07/18 08:21:53;;;;;;;3.33;0.95;;;;;;;33.05;29.69;101762.22;5018717;28;20090;-62
2023/07/18 08:24:19;;;;;;;3.80;1.08;;;;;;;33.19;29.64;101760.78;5019177;28;20025;-61
2023/07/18 08:26:44;;;;;;;2.40;0.95;;;;;;;33.19;30.25;101758.00;5035389;28;20029;-61
2023/07/18 08:29:09;;;;;;;4.53;1.15;;;;;;;32.78;30.46;101765.69;5035200;28;20034;-62
2023/07/18 08:31:35;;;;;;;3.35;1.00;;;;;;;32.38;30.22;101767.75;5018431;28;20079;-62
2023/07/18 08:34:00;;;;;;;4.93;0.90;;;;;;;32.10;31.35;101770.56;5034711;28;20493;-61
2023/07/18 08:36:26;;;;;;;3.00;0.70;;;;;;;31.83;31.00;101764.72;5034880;28;20188;-61
2023/07/18 08:38:51;;;;;;;4.80;1.25;;;;;;;31.69;30.93;101764.19;5031474;28;20496;-62
2023/07/18 08:41:19;;;;;;;1.83;0.80;;;;;;;31.65;31.58;101762.16;5038075;28;20095;-61
2023/07/18 08:43:45;;;;;;;4.97;1.17;;;;;;;31.85;31.46;101751.50;5054863;28;20025;-61
2023/07/18 08:46:13;;;;;;;4.90;1.45;;;;;;;31.96;31.38;101744.19;5038102;28;20090;-61
2023/07/18 08:48:42;;;;;;;6.50;1.10;;;;;;;32.01;31.15;101741.56;5021656;28;20040;-61
2023/07/18 08:51:09;;;;;;;2.85;0.85;;;;;;;32.21;31.28;101744.72;5038309;28;20116;-61
2023/07/18 08:53:34;;;;;;;2.88;0.90;;;;;;;32.57;30.26;101743.41;5054353;28;20083;-62
2023/07/18 08:56:03;;;;;;;5.50;1.40;;;;;;;32.76;29.88;101726.25;5055577;28;20041;-62
2023/07/18 08:58:28;;;;;;;3.03;1.52;;;;;;;33.10;30.40;101726.22;5037743;28;20033;-61
2023/07/18 09:00:54;;;;;;;2.83;0.90;;;;;;;33.27;30.16;101724.22;5054410;28;20039;-62
2023/07/18 09:03:19;;;;;;;6.07;0.80;;;;;;;33.56;29.81;101719.31;5055665;28;20385;-62
2023/07/18 09:05:45;;;;;;;1.75;1.05;;;;;;;33.84;29.85;101725.50;5054431;28;20437;-62
2023/07/18 09:08:10;;;;;;;2.42;0.70;;;;;;;34.17;29.09;101721.72;5054047;28;20037;-62
2023/07/18 09:10:36;;;;;;;2.28;1.15;;;;;;;33.98;29.46;101723.13;5037311;28;20128;-62
2023/07/18 09:13:04;;;;;;;4.30;1.02;;;;;;;33.83;29.76;101723.84;5055211;28;20033;-63
2023/07/18 09:15:33;;;;;;;5.07;0.80;;;;;;;33.88;29.71;101723.88;5036802;28;20402;-61
2023/07/18 09:18:01;;;;;;;2.53;0.80;;;;;;;33.98;29.73;101721.19;5054076;28;20025;-62
2023/07/18 09:20:27;;;;;;;3.70;1.10;;;;;;;34.07;29.04;101715.16;5037576;28;20059;-62
2023/07/18 09:23:03;;;;;;;4.45;1.13;;;;;;;34.23;29.53;101714.25;5053746;28;20025;-62
2023/07/18 09:25:29;;;;;;;3.53;0.90;;;;;;;34.17;29.74;101709.75;5036704;28;20037;-62
2023/07/18 09:27:55;;;;;;;2.25;0.80;;;;;;;33.90;28.89;101713.34;5053972;28;20033;-62
2023/07/18 09:30:34;;;;;;;1.05;0.55;;;;;;;33.65;28.61;101718.63;5053642;28;20028;-62
2023/07/18 09:33:03;;;;;;;3.40;0.88;;;;;;;33.42;29.37;101704.13;5053697;28;20520;-62
2023/07/18 09:35:28;;;;;;;3.15;1.10;;;;;;;33.17;29.38;101693.50;5053565;28;20052;-62
2023/07/18 09:37:53;;;;;;;2.10;0.73;;;;;;;32.92;29.44;101690.34;5053522;28;20083;-62
2023/07/18 09:40:19;;;;;;;3.88;0.80;;;;;;;32.74;29.78;101694.28;5054913;28;20040;-62
2023/07/18 09:42:46;;;;;;;2.35;0.52;;;;;;;32.62;29.01;101702.72;5053841;28;20049;-61
2023/07/18 09:45:15;;;;;;;1.90;0.85;;;;;;;32.58;28.59;101709.03;5053609;28;20033;-61
2023/07/18 09:47:41;;;;;;;3.83;0.60;;;;;;;32.55;29.63;101699.25;5053533;28;20404;-62
2023/07/18 09:50:12;;;;;;;3.28;0.70;;;;;;;32.51;29.68;101695.28;5053414;28;20079;-63
2023/07/18 09:52:47;;;;;;;4.57;1.23;;;;;;;32.50;29.81;101693.59;5052913;28;20067;-62
2023/07/18 09:55:13;;;;;;;0.95;0.65;;;;;;;32.50;28.92;101689.97;5030310;28;20122;-62
2023/07/18 09:57:42;;;;;;;3.85;0.93;;;;;;;32.55;29.31;101687.34;5033209;28;20041;-62
2023/07/18 10:00:13;;;;;;;2.13;0.88;;;;;;;32.45;28.83;101684.34;5037156;28;20036;-61
2023/07/18 10:02:39;;;;;;;1.90;0.80;;;;;;;32.30;29.61;101673.03;5037439;28;20033;-62
2023/07/18 10:05:05;;;;;;;2.55;1.27;;;;;;;32.20;29.79;101676.44;5053631;28;20493;-63
2023/07/18 10:07:34;;;;;;;3.55;1.10;;;;;;;32.16;29.17;101680.84;5036423;28;20041;-61
2023/07/18 10:10:01;;;;;;;3.30;1.00;;;;;;;32.19;29.08;101674.78;5053182;28;20037;-61
2023/07/18 10:12:26;;;;;;;3.90;1.27;;;;;;;32.33;29.02;101665.00;5036212;28;20026;-61
2023/07/18 10:15:00;;;;;;;1.30;0.70;;;;;;;32.25;29.29;101662.66;5019816;28;20036;-62
2023/07/18 10:17:32;;;;;;;0.90;0.73;;;;;;;32.10;28.88;101659.66;5048919;28;20025;-62
2023/07/18 10:19:57;;;;;;;1.88;1.10;;;;;;;31.96;29.97;101655.47;5054014;28;20033;-62
2023/07/18 10:22:26;;;;;;;2.53;1.13;;;;;;;31.84;29.07;101654.69;5036085;28;20083;-62
2023/07/18 10:24:52;;;;;;;1.98;1.00;;;;;;;31.69;29.39;101661.63;5052341;28;20083;-62
2023/07/18 10:27:17;;;;;;;3.25;0.80;;;;;;;31.54;29.93;101655.81;5036093;28;20041;-62
2023/07/18 10:30:04;;;;;;;3.75;1.23;;;;;;;31.48;29.80;101655.97;5052899;28;20037;-62
2023/07/18 10:32:31;;;;;;;1.52;0.68;;;;;;;31.49;30.18;101644.63;5052408;28;20086;-63
2023/07/18 10:34:56;;;;;;;1.35;1.05;;;;;;;31.54;30.19;101647.50;5036163;28;20045;-62
2023/07/18 10:37:26;;;;;;;3.30;0.77;;;;;;;31.64;30.02;101638.53;5034966;28;20033;-62
2023/07/18 10:39:53;;;;;;;5.53;1.30;;;;;;;31.73;30.15;101647.28;5053080;28;20041;-62
2023/07/18 10:42:20;;;;;;;3.97;0.98;;;;;;;31.82;29.75;101651.34;5052713;28;20036;-62
2023/07/18 10:45:00;;;;;;;3.80;0.93;;;;;;;31.94;29.77;101641.03;5052806;28;20037;-64
2023/07/18 10:47:27;;;;;;;3.80;0.70;;;;;;;31.92;29.11;101632.97;5052493;28;20128;-64
2023/07/18 10:49:53;;;;;;;4.65;1.40;;;;;;;31.86;29.36;101628.41;5054040;28;20069;-64
2023/07/18 10:52:20;;;;;;;3.58;0.82;;;;;;;31.81;30.18;101641.34;5052413;28;20460;-64
2023/07/18 10:54:46;;;;;;;3.58;0.90;;;;;;;31.74;29.93;101643.44;5035599;28;20028;-64
2023/07/18 10:57:11;;;;;;;4.93;0.73;;;;;;;31.67;29.80;101649.97;5035631;28;20155;-64
2023/07/18 10:59:36;;;;;;;1.95;0.73;;;;;;;31.65;29.83;101651.31;5054256;28;20021;-64
2023/07/18 11:02:03;;;;;;;3.03;0.93;;;;;;;31.70;30.15;101648.63;5056671;28;20032;-64
2023/07/18 11:04:29;;;;;;;1.02;0.60;;;;;;;31.78;29.33;101648.22;5023914;28;20023;-64
2023/07/18 11:06:55;;;;;;;3.50;0.70;;;;;;;31.99;29.64;101641.13;5039649;28;20115;-64
2023/07/18 11:09:22;;;;;;;1.92;0.60;;;;;;;32.41;28.80;101642.41;5058295;28;20141;-64
2023/07/18 11:11:47;;;;;;;2.50;0.98;;;;;;;33.08;29.30;101636.75;5060030;28;20039;-64
2023/07/18 11:14:12;;;;;;;3.22;1.80;;;;;;;33.91;27.72;101628.81;5038068;28;20112;-64
2023/07/18 11:16:38;;;;;;;7.93;0.88;;;;;;;34.62;28.21;101621.03;5036582;28;20033;-64
2023/07/18 11:19:07;;;;;;;2.95;0.85;;;;;;;35.30;27.51;101619.16;5053372;28;20564;-65